Accueil
METAR-TAF:

METAR-TAF

Aéroports :

Tchita, Russie

latitude: 52-05N, longitude: 113-29E, altitude: 685 m

Observation

Le bulletin a été fait il y a 24 minutes, à 15:00 UTC
Vent calme
Température 5°C
Humidité 87%
Pression 1009 hPa
Visibilité 10 km ou plus

METAR: UIAA 191500Z 00000MPS 9999 NSC 05/03 Q1009 R29/CLRD70 NOSIG RMK QFE698/0931

Heure: 00:24 (15:24 UTC)

Prévision

Le bulletin a été fait il y a 1 heure et 24 minutes, à 14:00 UTC
Prévision valable du 19 à 15 UTC au 20 à 15 UTC
Vent 6 kt de nord-ouest
Visibilité 10 km ou plus
Nuages épars à une hauteur de 200 ft
Temporairement
du 19 à 19 UTC au 20 à 01 UTC
Visibilité: 0500 m
brouillard
Evoluant progressivement
du 20 à 01 UTC au 20 à 03 UTC
Nuages fragmentés à une hauteur de 3000 ft, Cumulonimbus.

TAF: UIAA 191400Z 1915/2015 31003MPS 9999 SCT002 TEMPO 1919/2001 0500 FG BECMG 2001/2003 BKN030CB

Observations et prévisions météorologiques de plus de 4000 aéroports (messages METAR et TAF).

Les stations disponibles sont représentées par des disques jaunes et rouges sur la carte.

Passer la souris dessus pour voir le nom de la station.

Cliquer dessus pour voir les observations et prévisions météorologiques.

Pour changer de carte: cliquez sur les boutons verts avec une croix noire pour zoomer, sur le bouton vert avec un tiret pour effectuer un zoom arrière, ou sur les flèches vertes pour les cartes adjacentes.


METAR-TAF: